createdAt,value
2022-12-27T00:04:35.111Z,102617.81
2022-12-27T00:09:41.360Z,102615.28
2022-12-27T00:14:45.907Z,102610.16
2022-12-27T00:19:51.390Z,102620.53
2022-12-27T00:24:56.868Z,102631.66
2022-12-27T00:30:01.821Z,102629.16
2022-12-27T00:35:07.148Z,102626.63
2022-12-27T00:40:12.873Z,102634.38
2022-12-27T00:45:17.432Z,102631.84
2022-12-27T00:50:22.047Z,102647.31
2022-12-27T00:55:26.692Z,102641.34
2022-12-27T01:00:31.832Z,102650.78
2022-12-27T01:05:39.030Z,102667.13
2022-12-27T01:10:44.158Z,102649.13
2022-12-27T01:15:48.812Z,102655.13
2022-12-27T01:20:53.517Z,102664.59
2022-12-27T01:26:06.637Z,102694.63
2022-12-27T01:31:16.899Z,102656.00
2022-12-27T01:36:23.562Z,102662.84
2022-12-27T01:41:58.191Z,102674.03
2022-12-27T01:47:05.592Z,102669.72
2022-12-27T01:52:13.691Z,102672.25
2022-12-27T01:57:18.364Z,102685.13
2022-12-27T02:02:23.684Z,102678.22
2022-12-27T02:07:48.464Z,102675.56
2022-12-27T02:12:54.039Z,102675.56
2022-12-27T02:17:58.852Z,102677.22
2022-12-27T02:24:05.343Z,102672.84
2022-12-27T02:29:23.241Z,102667.66
2022-12-27T02:34:42.396Z,102658.94
2022-12-27T02:39:51.631Z,102645.97
2022-12-27T02:45:14.954Z,102640.72
2022-12-27T02:50:38.818Z,102643.22
2022-12-27T02:56:21.536Z,102628.47
2022-12-27T03:01:53.663Z,102616.34
2022-12-27T03:07:17.016Z,102604.25
2022-12-27T03:13:01.545Z,102601.59
2022-12-27T03:18:14.953Z,102598.03
2022-12-27T03:23:38.700Z,102623.81
2022-12-27T03:29:04.633Z,102599.56
2022-12-27T03:34:33.003Z,102570.16
2022-12-27T03:39:44.796Z,102561.63
2022-12-27T03:44:50.431Z,102579.66
2022-12-27T03:50:23.233Z,102546.78
2022-12-27T03:55:33.168Z,102545.78
2022-12-27T04:00:39.127Z,102512.06
2022-12-27T04:05:43.975Z,102519.72
2022-12-27T04:11:06.951Z,102515.31
2022-12-27T04:16:30.023Z,102495.31
2022-12-27T04:21:53.114Z,102490.72
2022-12-27T04:27:15.965Z,102487.09
2022-12-27T04:32:38.921Z,102454.16
2022-12-27T04:37:44.006Z,102455.78
2022-12-27T04:43:07.612Z,102461.72
2022-12-27T04:48:34.823Z,102424.38
2022-12-27T04:53:58.948Z,102416.34
2022-12-27T04:59:22.968Z,102412.03
2022-12-27T05:04:28.745Z,102411.81
2022-12-27T05:09:52.999Z,102404.09
2022-12-27T05:14:58.184Z,102393.56
2022-12-27T05:20:03.406Z,102399.19
2022-12-27T05:25:28.102Z,102393.03
2022-12-27T05:30:39.123Z,102417.13
2022-12-27T05:35:44.650Z,102359.13
2022-12-27T05:40:50.114Z,102362.53
2022-12-27T05:45:56.165Z,102361.63
2022-12-27T05:51:06.153Z,102382.28
2022-12-27T05:56:15.386Z,102353.75
2022-12-27T06:01:21.786Z,102350.16
2022-12-27T06:06:27.252Z,102345.91
2022-12-27T06:11:32.587Z,102342.34
2022-12-27T06:16:37.571Z,102348.44
2022-12-27T06:21:42.989Z,102339.69
2022-12-27T06:26:49.217Z,102338.66
2022-12-27T06:31:54.861Z,102371.59
2022-12-27T06:37:01.234Z,102342.22
2022-12-27T06:42:06.322Z,102337.88
2022-12-27T06:47:11.227Z,102353.66
2022-12-27T06:52:17.004Z,102348.56
2022-12-27T06:57:22.316Z,102380.75
2022-12-27T07:02:28.633Z,102402.28
2022-12-27T07:07:33.917Z,102364.34
2022-12-27T07:12:39.188Z,102358.56
2022-12-27T07:17:44.119Z,102362.06
2022-12-27T07:22:50.555Z,102367.38
2022-12-27T07:27:57.251Z,102367.50
2022-12-27T07:33:02.676Z,102376.34
2022-12-27T07:38:07.342Z,102390.34
2022-12-27T07:43:12.741Z,102396.34
2022-12-27T07:48:18.483Z,102392.97
2022-12-27T07:53:24.063Z,102398.22
2022-12-27T07:58:29.647Z,102401.84
2022-12-27T08:03:36.857Z,102401.91
2022-12-27T08:08:45.542Z,102400.25
2022-12-27T08:13:50.869Z,102403.78
2022-12-27T08:18:57.285Z,102456.44
2022-12-27T08:24:04.364Z,102403.97
2022-12-27T08:29:09.616Z,102407.47
2022-12-27T08:34:15.016Z,102414.53
2022-12-27T08:39:20.642Z,102412.97
2022-12-27T08:44:27.061Z,102419.06
2022-12-27T08:49:32.292Z,102414.03
2022-12-27T08:54:37.668Z,102421.00
2022-12-27T08:59:43.073Z,102422.84
2022-12-27T09:04:48.979Z,102418.72
2022-12-27T09:09:54.028Z,102436.97
2022-12-27T09:15:02.122Z,102429.31
2022-12-27T09:20:09.620Z,102420.75
2022-12-27T09:25:15.889Z,102447.59
2022-12-27T09:30:21.037Z,102445.09
2022-12-27T09:35:26.189Z,102444.41
2022-12-27T09:40:32.128Z,102448.88
2022-12-27T09:45:45.408Z,102464.50
2022-12-27T09:50:57.096Z,102451.69
2022-12-27T09:56:01.350Z,102451.00
2022-12-27T10:01:21.349Z,102451.03
2022-12-27T10:06:35.611Z,102454.56
2022-12-27T10:12:13.254Z,102456.38
2022-12-27T10:17:52.900Z,102447.91
2022-12-27T10:23:06.880Z,102481.59
2022-12-27T10:28:26.853Z,102447.22
2022-12-27T10:33:35.319Z,102461.06
2022-12-27T10:38:39.904Z,102455.09
2022-12-27T10:43:48.315Z,102453.41
2022-12-27T10:49:30.692Z,102455.16
2022-12-27T10:54:36.859Z,102462.97
2022-12-27T10:59:42.546Z,102453.53
2022-12-27T11:05:02.618Z,102458.75
2022-12-27T11:10:18.135Z,102470.84
2022-12-27T11:15:23.509Z,102451.06
2022-12-27T11:20:41.980Z,102462.28
2022-12-27T11:25:59.812Z,102466.59
2022-12-27T11:31:10.419Z,102480.38
2022-12-27T11:36:25.613Z,102474.38
2022-12-27T11:41:49.334Z,102488.16
2022-12-27T11:47:12.097Z,102485.66
2022-12-27T11:53:04.016Z,102491.75
2022-12-27T11:58:43.734Z,102497.81
2022-12-27T12:04:24.079Z,102498.75
2022-12-27T12:09:41.201Z,102495.38
2022-12-27T12:15:14.030Z,102503.16
2022-12-27T12:20:34.006Z,102492.91
2022-12-27T12:25:59.971Z,102492.09
2022-12-27T12:31:45.870Z,102506.69
2022-12-27T12:37:07.140Z,102510.16
2022-12-27T12:42:23.029Z,102501.59
2022-12-27T12:47:33.677Z,102491.25
2022-12-27T12:53:08.073Z,102500.72
2022-12-27T12:58:42.112Z,102497.25
2022-12-27T13:03:52.485Z,102497.25
2022-12-27T13:09:11.971Z,102498.09
2022-12-27T13:14:42.283Z,102504.06
2022-12-27T13:20:11.665Z,102504.03
2022-12-27T13:25:54.668Z,102509.16
2022-12-27T13:31:16.822Z,102509.13
2022-12-27T13:36:39.996Z,102504.84
2022-12-27T13:42:27.037Z,102497.19
2022-12-27T13:48:22.283Z,102499.75
2022-12-27T13:53:45.624Z,102499.72
2022-12-27T13:59:08.035Z,102510.88
2022-12-27T14:04:56.055Z,102512.56
2022-12-27T14:10:31.877Z,102516.81
2022-12-27T14:15:52.411Z,102518.50
2022-12-27T14:21:16.678Z,102520.22
2022-12-27T14:26:46.487Z,102511.66
2022-12-27T14:32:11.177Z,102516.00
2022-12-27T14:37:54.997Z,102522.91
2022-12-27T14:43:35.804Z,102522.91
2022-12-27T14:48:41.471Z,102519.44
2022-12-27T14:53:52.722Z,102519.44
2022-12-27T14:59:24.040Z,102525.41
2022-12-27T15:04:44.447Z,102529.69
2022-12-27T15:10:12.524Z,102529.69
2022-12-27T15:15:21.398Z,102533.06
2022-12-27T15:20:38.209Z,102538.16
2022-12-27T15:25:56.792Z,102546.69
2022-12-27T15:31:19.329Z,102539.84
2022-12-27T15:36:38.152Z,102534.72
2022-12-27T15:42:10.778Z,102532.16
2022-12-27T15:47:38.505Z,102528.72
2022-12-27T15:52:58.841Z,102530.44
2022-12-27T15:58:23.817Z,102532.13
2022-12-27T16:03:36.514Z,102523.56
2022-12-27T16:08:42.825Z,102522.69
2022-12-27T16:13:50.989Z,102563.75
2022-12-27T16:19:17.662Z,102533.72
2022-12-27T16:24:27.948Z,102525.91
2022-12-27T16:29:38.313Z,102523.28
2022-12-27T16:34:46.216Z,102524.94
2022-12-27T16:39:50.968Z,102524.78
2022-12-27T16:45:06.840Z,102523.84
2022-12-27T16:50:29.340Z,102525.47
2022-12-27T16:55:49.343Z,102531.47
2022-12-27T17:00:56.533Z,102516.13
2022-12-27T17:06:31.399Z,102516.97
2022-12-27T17:11:30.505Z,102509.28
2022-12-27T17:16:44.403Z,102506.75
2022-12-27T17:21:56.863Z,102508.47
2022-12-27T17:27:20.069Z,102501.66
2022-12-27T17:32:48.865Z,102510.19
2022-12-27T17:38:03.165Z,102516.19
2022-12-27T17:43:56.066Z,102517.84
2022-12-27T17:49:00.819Z,102528.03
2022-12-27T17:54:45.101Z,102539.91
2022-12-27T17:59:52.031Z,102531.41
2022-12-27T18:04:58.654Z,102534.88
2022-12-27T18:10:26.446Z,102533.97
2022-12-27T18:15:35.388Z,102539.06
2022-12-27T18:20:41.994Z,102546.69
2022-12-27T18:25:46.540Z,102544.13
2022-12-27T18:31:21.737Z,102537.19
2022-12-27T18:36:32.055Z,102554.22
2022-12-27T18:41:55.045Z,102551.50
2022-12-27T18:47:03.373Z,102562.41
2022-12-27T18:52:32.450Z,102547.78
2022-12-27T18:57:37.555Z,102544.22
2022-12-27T19:02:42.128Z,102548.44
2022-12-27T19:08:07.876Z,102539.06
2022-12-27T19:13:25.030Z,102547.84
2022-12-27T19:18:39.418Z,102575.38
2022-12-27T19:23:50.301Z,102536.22
2022-12-27T19:29:09.490Z,102521.75
2022-12-27T19:34:20.074Z,102529.41
2022-12-27T19:39:37.538Z,102526.69
2022-12-27T19:44:42.610Z,102527.34
2022-12-27T19:49:47.184Z,102515.16
2022-12-27T19:54:54.470Z,102524.44
2022-12-27T19:59:59.612Z,102517.56
2022-12-27T20:05:04.820Z,102521.72
2022-12-27T20:10:14.362Z,102515.72
2022-12-27T20:15:19.217Z,102558.34
2022-12-27T20:20:24.706Z,102550.66
2022-12-27T20:25:29.508Z,102505.50
2022-12-27T20:30:35.644Z,102505.50
2022-12-27T20:35:40.549Z,102505.56
2022-12-27T20:40:46.497Z,102515.88
2022-12-27T20:45:52.847Z,102502.28
2022-12-27T20:50:58.457Z,102503.19
2022-12-27T20:56:03.781Z,102514.25
2022-12-27T21:01:11.603Z,102504.00
2022-12-27T21:06:22.501Z,102506.56
2022-12-27T21:11:32.304Z,102498.00
2022-12-27T21:16:37.692Z,102493.78
2022-12-27T21:21:43.113Z,102502.31
2022-12-27T21:26:56.258Z,102552.69
2022-12-27T21:32:02.717Z,102503.28
2022-12-27T21:37:13.010Z,102497.41
2022-12-27T21:42:19.384Z,102499.16
2022-12-27T21:47:24.597Z,102510.28
2022-12-27T21:52:30.158Z,102514.66
2022-12-27T21:57:35.199Z,102519.81
2022-12-27T22:02:40.407Z,102515.59
2022-12-27T22:07:45.501Z,102519.94
2022-12-27T22:12:50.542Z,102521.66
2022-12-27T22:17:56.477Z,102526.84
2022-12-27T22:23:01.540Z,102541.44
2022-12-27T22:28:06.557Z,102582.47
2022-12-27T22:33:11.724Z,102537.25
2022-12-27T22:38:16.924Z,102526.19
2022-12-27T22:43:21.990Z,102566.38
2022-12-27T22:48:28.054Z,102554.47
2022-12-27T22:53:33.065Z,102607.47
2022-12-27T22:58:38.933Z,102539.97
2022-12-27T23:03:44.985Z,102547.63
2022-12-27T23:08:50.498Z,102559.56
2022-12-27T23:14:04.304Z,102568.09
2022-12-27T23:19:09.949Z,102580.78
2022-12-27T23:24:16.874Z,102579.00
2022-12-27T23:29:22.048Z,102601.19
2022-12-27T23:34:29.369Z,102581.50
2022-12-27T23:39:35.536Z,102589.16
2022-12-27T23:44:40.656Z,102629.28
2022-12-27T23:49:46.742Z,102582.34
2022-12-27T23:54:51.836Z,102576.38
2022-12-27T23:59:56.938Z,102581.50
